Kodiak, AK

2:21 AM AKDT on June 02, 2015 (GMT -0800)
Seldovia | | Change Station
CLOSE
Current Station
Airport
Location: Seldovia,
Elevation: 30 ft
Nearby Weather Stations

Elev 30 ft 59.44 °N, 151.70 °W | Updated 28 minutes ago

Light Rain
Light Rain
51 °F
Feels Like 51 °F
N
7
Wind Variable Wind from SSW

Today
High -- | Low -- °F
--% Chance of Precip.
Yesterday
High -- | Low -- °F
Precip. -- in
5:17 AM 10:59 PM
Full, 100% visible
Pressure 29.75 in
Visibility 10.0 miles
Clouds Overcast 8000 ft
Dew Point 47 °F
Humidity 86%
Rainfall 0.00 in
Snow Depth Not available.
UV 0 out of 12
Pollen Not available.
Air Quality Not available.
Flu Activity Sporadic
METAR PASO 020953Z AUTO 20006KT 10SM -RA OVC080 11/08 A2975 RMK RAB47 SLP073 P0000 T01060083 TSNO $ VIA AUTODIAL

More Conditions Fewer Conditions

Pressure 29.75 in
Visibility 10.0 miles
Clouds Overcast 8000 ft
Dew Point 47 °F
Humidity 86%
Rainfall 0.00 in
Snow Depth Not available.
UV 0 out of 12
Pollen Not available.
Air Quality Not available.
Flu Activity Sporadic
METAR PASO 020953Z AUTO 20006KT 10SM -RA OVC080 11/08 A2975 RMK RAB47 SLP073 P0000 T01060083 TSNO $ VIA AUTODIAL

More Conditions Fewer Conditions

10-Day Weather Forecast

Almanac

Astronomy

Jun. 02, 2015 Rise Set
Actual Time
Civil Twilight
Nautical Twilight
Astronomical Twilight
Moon
Length of Visible Light
Length of Day
Tomorrow will be .
, % of the Moon is Illuminated

Today's Extremes

State Highs State Lows

Community

WunderPhotos

Upload Photos

1,825,902 photos uploaded!

WunderBlogs® & News

Nearby

Air Quality

  Air Quality AQ Index Pollutant
Not available.

Snow Depth

Station Depth Elevation

Earthquake Activity

City Distance Mag. Time & Date
Minimum magnitude displayed is 2.5.

Coastal Water Temperatures

Place Temperature

Stations

Nearby Weather Stations

Station Location Temp. Windchill Dew Point Humidity Wind Precip. Elev Updated Type